Gaziantep International Airport


Codes: LTAJ/GZT
Name: Gaziantep International Airport
City: Gaziantep
Country: Turkey
Elevation: 2315 ft.
Wikipedia:

Photos at Gaziantep International Airport


   Photos courtesy of SpottingLog. You can add your own sightings and photos by signing up for a free trial today.



No photos found.

Weather at Gaziantep International Airport


Time (UTC)DescriptionTempratureWindCloud coverageVisibilityPressureHumidity
25-Jun-2024 12:00Clear Sky39°C13 mph, W0%10000m1001hPa10%
25-Jun-2024 15:00Clear Sky38°C18 mph, NW0%10000m1001hPa13%
25-Jun-2024 18:00Clear Sky33°C18 mph, NW0%10000m1002hPa30%
25-Jun-2024 21:00Clear Sky28°C16 mph, NW0%10000m1003hPa42%
26-Jun-2024 00:00Clear Sky25°C11 mph, NW0%10000m1003hPa53%
26-Jun-2024 03:00Clear Sky24°C9 mph, NW0%10000m1004hPa53%
26-Jun-2024 06:00Clear Sky32°C13 mph, NW0%10000m1004hPa23%
26-Jun-2024 09:00Clear Sky35°C18 mph, NW0%10000m1003hPa13%
26-Jun-2024 12:00Clear Sky37°C20 mph, NW0%10000m1001hPa11%
26-Jun-2024 15:00Clear Sky35°C20 mph, NW0%10000m1001hPa13%
26-Jun-2024 18:00Clear Sky28°C16 mph, N0%10000m1004hPa28%
26-Jun-2024 21:00Clear Sky24°C16 mph, N0%10000m1005hPa37%
27-Jun-2024 00:00Clear Sky23°C13 mph, NW0%10000m1005hPa41%
27-Jun-2024 03:00Clear Sky22°C13 mph, NW0%10000m1004hPa36%
27-Jun-2024 06:00Clear Sky29°C11 mph, NW0%10000m1004hPa12%
27-Jun-2024 09:00Clear Sky33°C4 mph, N0%10000m1003hPa9%
27-Jun-2024 12:00Clear Sky36°C4 mph, NW0%10000m1002hPa6%
27-Jun-2024 15:00Clear Sky36°C11 mph, NW0%10000m1001hPa8%
27-Jun-2024 18:00Clear Sky30°C9 mph, NW0%10000m1003hPa15%
27-Jun-2024 21:00Clear Sky27°C7 mph, NW0%10000m1004hPa32%
28-Jun-2024 00:00Clear Sky25°C7 mph, NW0%10000m1003hPa45%
28-Jun-2024 03:00Clear Sky24°C7 mph, NW0%10000m1003hPa41%
28-Jun-2024 06:00Clear Sky31°C9 mph, NW0%10000m1003hPa18%
28-Jun-2024 09:00Clear Sky35°C7 mph, NW0%10000m1002hPa11%
28-Jun-2024 12:00Clear Sky37°C9 mph, NW0%10000m1000hPa9%
28-Jun-2024 15:00Clear Sky36°C11 mph, W0%10000m999hPa12%
28-Jun-2024 18:00Clear Sky30°C9 mph, W0%10000m1001hPa30%
28-Jun-2024 21:00Clear Sky27°C9 mph, NW0%10000m1002hPa50%
29-Jun-2024 00:00Clear Sky24°C7 mph, NW0%10000m1001hPa60%
29-Jun-2024 03:00Clear Sky24°C7 mph, NW0%10000m1002hPa56%
29-Jun-2024 06:00Clear Sky32°C11 mph, NW0%10000m1001hPa22%
29-Jun-2024 09:00Clear Sky36°C9 mph, NW0%10000m1000hPa12%
29-Jun-2024 12:00Clear Sky37°C11 mph, W0%10000m999hPa14%
29-Jun-2024 15:00Clear Sky35°C16 mph, W2%10000m999hPa17%
29-Jun-2024 18:00Clear Sky29°C9 mph, NW1%10000m1001hPa37%
29-Jun-2024 21:00Clear Sky26°C7 mph, NW0%10000m1001hPa48%
30-Jun-2024 00:00Clear Sky24°C7 mph, NW0%10000m1001hPa57%
30-Jun-2024 03:00Clear Sky23°C7 mph, NW0%10000m1001hPa57%
30-Jun-2024 06:00Clear Sky30°C7 mph, NW0%10000m1001hPa29%
30-Jun-2024 09:00Clear Sky34°C2 mph, W0%10000m1000hPa19%